createdAt,value
2022-12-29T00:14:13.383Z,100941.72
2022-12-29T00:29:34.022Z,100932.31
2022-12-29T00:44:36.090Z,100936.66
2022-12-29T00:59:42.569Z,100949.66
2022-12-29T01:14:44.377Z,100957.84
2022-12-29T01:29:46.257Z,100963.06
2022-12-29T01:44:49.811Z,100973.53
2022-12-29T01:59:57.743Z,100965.84
2022-12-29T02:15:02.667Z,100959.38
2022-12-29T02:30:04.818Z,100934.91
2022-12-29T02:45:31.956Z,100935.13
2022-12-29T03:00:35.979Z,100917.47
2022-12-29T03:16:02.264Z,100917.75
2022-12-29T03:31:06.516Z,100916.41
2022-12-29T03:46:09.381Z,100912.78
2022-12-29T04:01:11.451Z,100915.91
2022-12-29T07:22:58.529Z,101351.19
2022-12-29T07:38:00.485Z,101375.91
2022-12-29T07:53:03.161Z,101408.81
2022-12-29T08:08:05.250Z,101401.53
2022-12-29T08:23:07.153Z,101337.22
2022-12-29T08:38:08.957Z,101293.63
2022-12-29T08:53:13.960Z,101323.31
2022-12-29T09:08:18.589Z,101332.31
2022-12-29T09:23:24.850Z,101343.09
2022-12-29T09:38:27.663Z,101347.59
2022-12-29T09:53:29.565Z,101329.63
2022-12-29T10:08:37.502Z,101350.47
2022-12-29T10:23:46.069Z,101358.00
2022-12-29T10:39:04.574Z,101325.53
2022-12-29T10:54:16.321Z,101310.81
2022-12-29T11:09:41.897Z,101306.44
2022-12-29T11:24:49.560Z,101286.38
2022-12-29T11:40:26.110Z,101262.06
2022-12-29T11:55:30.129Z,101222.44
2022-12-29T12:10:46.045Z,101203.09
2022-12-29T12:26:14.121Z,101221.16
2022-12-29T12:41:22.207Z,101216.28
2022-12-29T12:56:38.216Z,101184.19
2022-12-29T16:34:23.944Z,100647.94
2022-12-29T16:49:27.372Z,100719.53
2022-12-29T17:04:30.592Z,100729.47
2022-12-29T17:19:35.653Z,100722.03
2022-12-29T17:34:38.049Z,100700.72
2022-12-29T17:49:39.881Z,100698.38
2022-12-29T18:04:41.840Z,100691.31
2022-12-29T18:19:43.665Z,100692.56
2022-12-29T18:34:45.725Z,100672.69
2022-12-29T18:49:47.547Z,100700.06
2022-12-29T19:04:53.046Z,100711.09
2022-12-29T19:19:55.476Z,100695.00
2022-12-29T19:34:57.451Z,100716.06
2022-12-29T19:49:59.789Z,100691.78
2022-12-29T20:05:01.591Z,100700.16
2022-12-29T20:20:04.363Z,100720.22
2022-12-29T20:35:06.688Z,100738.06
2022-12-29T20:50:08.661Z,100718.03
2022-12-29T21:05:23.708Z,100748.19
2022-12-29T21:20:32.516Z,100757.44
2022-12-29T21:35:39.195Z,100758.34
2022-12-29T21:51:01.319Z,100764.97
2022-12-29T22:06:21.899Z,100783.44
2022-12-29T22:21:24.357Z,100759.06
2022-12-29T22:36:27.543Z,100762.06
2022-12-29T22:51:29.395Z,100761.81
2022-12-29T23:06:31.849Z,100790.84
2022-12-29T23:21:33.769Z,100792.31
2022-12-29T23:36:36.237Z,100801.53
2022-12-29T23:51:38.410Z,100822.00
